sensor_id;sensor_type;location;lat;lon;timestamp;P1;durP1;ratioP1;P2;durP2;ratioP2
73697;SDS011;62004;42.566;23.164;2022-07-29T00:02:17;5.50;;;4.57;;
73697;SDS011;62004;42.566;23.164;2022-07-29T00:04:42;5.90;;;5.40;;
73697;SDS011;62004;42.566;23.164;2022-07-29T00:07:07;7.67;;;6.97;;
73697;SDS011;62004;42.566;23.164;2022-07-29T00:09:33;9.25;;;8.27;;
73697;SDS011;62004;42.566;23.164;2022-07-29T00:11:59;5.97;;;5.37;;
73697;SDS011;62004;42.566;23.164;2022-07-29T00:14:25;6.05;;;5.05;;
73697;SDS011;62004;42.566;23.164;2022-07-29T00:16:50;5.20;;;4.70;;
73697;SDS011;62004;42.566;23.164;2022-07-29T00:19:15;6.83;;;6.23;;
73697;SDS011;62004;42.566;23.164;2022-07-29T00:21:41;5.03;;;4.63;;
73697;SDS011;62004;42.566;23.164;2022-07-29T00:24:06;6.10;;;5.50;;
73697;SDS011;62004;42.566;23.164;2022-07-29T00:26:31;6.63;;;5.93;;
73697;SDS011;62004;42.566;23.164;2022-07-29T00:29:00;6.20;;;5.60;;
73697;SDS011;62004;42.566;23.164;2022-07-29T00:31:26;6.68;;;5.93;;
73697;SDS011;62004;42.566;23.164;2022-07-29T00:33:52;6.40;;;5.80;;
73697;SDS011;62004;42.566;23.164;2022-07-29T00:36:17;8.77;;;7.07;;
73697;SDS011;62004;42.566;23.164;2022-07-29T00:38:42;10.77;;;7.30;;
73697;SDS011;62004;42.566;23.164;2022-07-29T00:41:10;9.38;;;8.38;;
73697;SDS011;62004;42.566;23.164;2022-07-29T00:43:35;7.32;;;5.90;;
73697;SDS011;62004;42.566;23.164;2022-07-29T00:46:01;7.33;;;6.53;;
73697;SDS011;62004;42.566;23.164;2022-07-29T00:48:26;8.55;;;5.93;;
73697;SDS011;62004;42.566;23.164;2022-07-29T00:50:51;6.28;;;5.65;;
73697;SDS011;62004;42.566;23.164;2022-07-29T00:53:17;8.02;;;5.60;;
73697;SDS011;62004;42.566;23.164;2022-07-29T00:55:44;6.22;;;5.60;;
73697;SDS011;62004;42.566;23.164;2022-07-29T00:58:09;7.28;;;5.20;;
73697;SDS011;62004;42.566;23.164;2022-07-29T01:00:36;8.20;;;4.18;;
73697;SDS011;62004;42.566;23.164;2022-07-29T01:03:02;6.40;;;5.68;;
73697;SDS011;62004;42.566;23.164;2022-07-29T01:05:27;8.65;;;4.85;;
73697;SDS011;62004;42.566;23.164;2022-07-29T01:07:54;9.48;;;5.65;;
73697;SDS011;62004;42.566;23.164;2022-07-29T01:10:19;7.82;;;6.18;;
73697;SDS011;62004;42.566;23.164;2022-07-29T01:12:46;6.30;;;5.70;;
73697;SDS011;62004;42.566;23.164;2022-07-29T01:15:12;6.38;;;5.78;;
73697;SDS011;62004;42.566;23.164;2022-07-29T01:30:12;6.05;;;5.28;;
73697;SDS011;62004;42.566;23.164;2022-07-29T01:32:37;6.85;;;5.30;;
73697;SDS011;62004;42.566;23.164;2022-07-29T01:37:35;7.47;;;5.70;;
73697;SDS011;62004;42.566;23.164;2022-07-29T01:40:03;5.43;;;4.93;;
73697;SDS011;62004;42.566;23.164;2022-07-29T01:45:00;6.40;;;5.80;;
73697;SDS011;62004;42.566;23.164;2022-07-29T01:47:31;5.10;;;4.70;;
73697;SDS011;62004;42.566;23.164;2022-07-29T01:49:58;6.05;;;5.53;;
73697;SDS011;62004;42.566;23.164;2022-07-29T01:52:25;6.53;;;4.75;;
73697;SDS011;62004;42.566;23.164;2022-07-29T01:54:53;5.97;;;4.28;;
73697;SDS011;62004;42.566;23.164;2022-07-29T01:57:21;5.18;;;4.68;;
73697;SDS011;62004;42.566;23.164;2022-07-29T01:59:49;5.30;;;4.45;;
73697;SDS011;62004;42.566;23.164;2022-07-29T02:02:16;5.43;;;4.93;;
73697;SDS011;62004;42.566;23.164;2022-07-29T02:04:42;8.07;;;5.45;;
73697;SDS011;62004;42.566;23.164;2022-07-29T02:07:10;6.22;;;5.57;;
73697;SDS011;62004;42.566;23.164;2022-07-29T02:09:37;7.15;;;6.50;;
73697;SDS011;62004;42.566;23.164;2022-07-29T02:12:04;7.38;;;5.90;;
73697;SDS011;62004;42.566;23.164;2022-07-29T02:14:33;5.47;;;4.97;;
73697;SDS011;62004;42.566;23.164;2022-07-29T02:16:59;6.88;;;5.47;;
73697;SDS011;62004;42.566;23.164;2022-07-29T02:19:25;6.97;;;5.32;;
73697;SDS011;62004;42.566;23.164;2022-07-29T02:21:51;6.70;;;5.90;;
73697;SDS011;62004;42.566;23.164;2022-07-29T02:24:18;8.05;;;5.30;;
73697;SDS011;62004;42.566;23.164;2022-07-29T02:26:44;6.72;;;5.78;;
73697;SDS011;62004;42.566;23.164;2022-07-29T02:29:10;7.43;;;6.20;;
73697;SDS011;62004;42.566;23.164;2022-07-29T02:31:37;8.25;;;6.50;;
73697;SDS011;62004;42.566;23.164;2022-07-29T02:34:03;6.85;;;6.15;;
73697;SDS011;62004;42.566;23.164;2022-07-29T02:36:29;6.03;;;5.43;;
73697;SDS011;62004;42.566;23.164;2022-07-29T02:38:56;5.47;;;4.97;;
73697;SDS011;62004;42.566;23.164;2022-07-29T02:41:23;8.13;;;6.70;;
73697;SDS011;62004;42.566;23.164;2022-07-29T02:43:50;7.18;;;6.47;;
73697;SDS011;62004;42.566;23.164;2022-07-29T02:46:19;10.68;;;6.05;;
73697;SDS011;62004;42.566;23.164;2022-07-29T02:48:51;6.97;;;6.18;;
73697;SDS011;62004;42.566;23.164;2022-07-29T02:51:23;7.65;;;6.78;;
73697;SDS011;62004;42.566;23.164;2022-07-29T02:53:51;5.70;;;5.20;;
73697;SDS011;62004;42.566;23.164;2022-07-29T02:56:18;6.20;;;5.70;;
73697;SDS011;62004;42.566;23.164;2022-07-29T03:01:16;9.40;;;5.30;;
73697;SDS011;62004;42.566;23.164;2022-07-29T03:03:42;5.72;;;5.22;;
73697;SDS011;62004;42.566;23.164;2022-07-29T03:06:07;6.13;;;5.63;;
73697;SDS011;62004;42.566;23.164;2022-07-29T03:08:33;6.50;;;5.63;;
73697;SDS011;62004;42.566;23.164;2022-07-29T03:10:59;7.38;;;4.53;;
73697;SDS011;62004;42.566;23.164;2022-07-29T03:13:25;5.22;;;4.63;;
73697;SDS011;62004;42.566;23.164;2022-07-29T03:15:51;5.40;;;4.53;;
73697;SDS011;62004;42.566;23.164;2022-07-29T03:18:17;3.60;;;3.28;;
73697;SDS011;62004;42.566;23.164;2022-07-29T03:20:42;4.82;;;4.43;;
73697;SDS011;62004;42.566;23.164;2022-07-29T03:23:08;4.80;;;4.40;;
73697;SDS011;62004;42.566;23.164;2022-07-29T03:25:33;4.95;;;4.20;;
73697;SDS011;62004;42.566;23.164;2022-07-29T03:27:58;4.95;;;4.53;;
73697;SDS011;62004;42.566;23.164;2022-07-29T03:30:24;4.57;;;4.13;;
73697;SDS011;62004;42.566;23.164;2022-07-29T03:32:49;3.85;;;3.45;;
73697;SDS011;62004;42.566;23.164;2022-07-29T03:35:15;4.15;;;3.85;;
73697;SDS011;62004;42.566;23.164;2022-07-29T03:37:41;4.53;;;4.13;;
73697;SDS011;62004;42.566;23.164;2022-07-29T03:40:07;5.03;;;4.63;;
73697;SDS011;62004;42.566;23.164;2022-07-29T03:42:34;4.72;;;3.60;;
73697;SDS011;62004;42.566;23.164;2022-07-29T03:45:02;4.38;;;3.97;;
73697;SDS011;62004;42.566;23.164;2022-07-29T03:47:28;7.93;;;4.93;;
73697;SDS011;62004;42.566;23.164;2022-07-29T03:49:59;3.40;;;3.10;;
73697;SDS011;62004;42.566;23.164;2022-07-29T03:52:24;4.65;;;4.25;;
73697;SDS011;62004;42.566;23.164;2022-07-29T03:54:50;3.92;;;3.25;;
73697;SDS011;62004;42.566;23.164;2022-07-29T03:57:16;5.50;;;5.00;;
73697;SDS011;62004;42.566;23.164;2022-07-29T03:59:42;5.85;;;5.35;;
73697;SDS011;62004;42.566;23.164;2022-07-29T04:02:08;5.78;;;5.28;;
73697;SDS011;62004;42.566;23.164;2022-07-29T04:04:34;4.80;;;4.32;;
73697;SDS011;62004;42.566;23.164;2022-07-29T04:07:00;5.50;;;4.75;;
73697;SDS011;62004;42.566;23.164;2022-07-29T04:09:25;4.78;;;4.38;;
73697;SDS011;62004;42.566;23.164;2022-07-29T04:11:50;5.03;;;4.60;;
73697;SDS011;62004;42.566;23.164;2022-07-29T04:14:16;8.07;;;5.03;;
73697;SDS011;62004;42.566;23.164;2022-07-29T04:16:41;7.97;;;5.10;;
73697;SDS011;62004;42.566;23.164;2022-07-29T04:19:07;8.60;;;5.30;;
73697;SDS011;62004;42.566;23.164;2022-07-29T04:21:36;6.17;;;4.43;;
73697;SDS011;62004;42.566;23.164;2022-07-29T04:24:01;6.75;;;5.20;;
73697;SDS011;62004;42.566;23.164;2022-07-29T04:26:27;6.50;;;5.72;;
73697;SDS011;62004;42.566;23.164;2022-07-29T04:28:52;7.28;;;5.32;;
73697;SDS011;62004;42.566;23.164;2022-07-29T04:31:17;4.73;;;3.80;;
73697;SDS011;62004;42.566;23.164;2022-07-29T04:33:42;4.70;;;4.27;;
73697;SDS011;62004;42.566;23.164;2022-07-29T04:36:08;7.47;;;4.73;;
73697;SDS011;62004;42.566;23.164;2022-07-29T04:38:33;4.95;;;4.47;;
73697;SDS011;62004;42.566;23.164;2022-07-29T04:40:58;5.83;;;4.47;;
73697;SDS011;62004;42.566;23.164;2022-07-29T04:43:24;6.03;;;4.22;;
73697;SDS011;62004;42.566;23.164;2022-07-29T04:45:49;8.37;;;4.40;;
73697;SDS011;62004;42.566;23.164;2022-07-29T04:48:15;4.68;;;4.28;;
73697;SDS011;62004;42.566;23.164;2022-07-29T04:50:40;5.70;;;5.20;;
73697;SDS011;62004;42.566;23.164;2022-07-29T04:53:06;4.72;;;4.18;;
73697;SDS011;62004;42.566;23.164;2022-07-29T04:55:31;7.53;;;6.57;;
73697;SDS011;62004;42.566;23.164;2022-07-29T04:57:57;7.90;;;6.68;;
73697;SDS011;62004;42.566;23.164;2022-07-29T05:00:22;6.87;;;6.27;;
73697;SDS011;62004;42.566;23.164;2022-07-29T05:02:48;8.05;;;7.22;;
73697;SDS011;62004;42.566;23.164;2022-07-29T05:05:13;9.20;;;7.25;;
73697;SDS011;62004;42.566;23.164;2022-07-29T05:07:38;7.43;;;6.73;;
73697;SDS011;62004;42.566;23.164;2022-07-29T05:10:04;8.30;;;6.80;;
73697;SDS011;62004;42.566;23.164;2022-07-29T05:12:29;7.90;;;7.10;;
73697;SDS011;62004;42.566;23.164;2022-07-29T05:14:55;7.65;;;6.50;;
73697;SDS011;62004;42.566;23.164;2022-07-29T05:17:20;8.63;;;6.55;;
73697;SDS011;62004;42.566;23.164;2022-07-29T05:19:45;8.40;;;7.43;;
73697;SDS011;62004;42.566;23.164;2022-07-29T05:22:10;7.95;;;7.25;;
73697;SDS011;62004;42.566;23.164;2022-07-29T05:24:36;8.90;;;7.20;;
73697;SDS011;62004;42.566;23.164;2022-07-29T05:27:01;7.30;;;6.57;;
73697;SDS011;62004;42.566;23.164;2022-07-29T05:29:26;8.63;;;6.90;;
73697;SDS011;62004;42.566;23.164;2022-07-29T05:31:51;7.90;;;7.30;;
73697;SDS011;62004;42.566;23.164;2022-07-29T05:34:18;8.18;;;7.38;;
73697;SDS011;62004;42.566;23.164;2022-07-29T05:36:43;9.43;;;7.93;;
73697;SDS011;62004;42.566;23.164;2022-07-29T05:39:09;9.55;;;7.70;;
73697;SDS011;62004;42.566;23.164;2022-07-29T05:41:34;9.43;;;8.17;;
73697;SDS011;62004;42.566;23.164;2022-07-29T05:43:59;9.23;;;8.33;;
73697;SDS011;62004;42.566;23.164;2022-07-29T05:46:24;8.57;;;7.70;;
73697;SDS011;62004;42.566;23.164;2022-07-29T05:48:50;9.07;;;8.17;;
73697;SDS011;62004;42.566;23.164;2022-07-29T05:51:15;9.70;;;8.68;;
73697;SDS011;62004;42.566;23.164;2022-07-29T05:53:40;9.60;;;8.68;;
73697;SDS011;62004;42.566;23.164;2022-07-29T05:56:06;11.48;;;8.63;;
73697;SDS011;62004;42.566;23.164;2022-07-29T05:58:32;11.32;;;9.30;;
73697;SDS011;62004;42.566;23.164;2022-07-29T06:00:57;11.35;;;9.73;;
73697;SDS011;62004;42.566;23.164;2022-07-29T06:03:25;10.02;;;8.85;;
73697;SDS011;62004;42.566;23.164;2022-07-29T06:05:51;11.73;;;10.52;;
73697;SDS011;62004;42.566;23.164;2022-07-29T06:08:16;10.88;;;9.82;;
73697;SDS011;62004;42.566;23.164;2022-07-29T06:10:42;10.48;;;9.48;;
73697;SDS011;62004;42.566;23.164;2022-07-29T06:13:07;13.02;;;10.10;;
73697;SDS011;62004;42.566;23.164;2022-07-29T06:15:33;8.88;;;8.05;;
73697;SDS011;62004;42.566;23.164;2022-07-29T06:17:58;10.65;;;9.57;;
73697;SDS011;62004;42.566;23.164;2022-07-29T06:20:23;11.23;;;10.13;;
73697;SDS011;62004;42.566;23.164;2022-07-29T06:22:49;11.18;;;10.07;;
73697;SDS011;62004;42.566;23.164;2022-07-29T06:25:14;10.23;;;9.13;;
73697;SDS011;62004;42.566;23.164;2022-07-29T06:27:39;11.03;;;10.03;;
73697;SDS011;62004;42.566;23.164;2022-07-29T06:30:04;10.47;;;9.17;;
73697;SDS011;62004;42.566;23.164;2022-07-29T06:32:32;10.32;;;9.18;;
73697;SDS011;62004;42.566;23.164;2022-07-29T06:34:59;9.07;;;8.27;;
73697;SDS011;62004;42.566;23.164;2022-07-29T06:37:24;8.73;;;8.00;;
73697;SDS011;62004;42.566;23.164;2022-07-29T06:39:49;8.93;;;8.23;;
73697;SDS011;62004;42.566;23.164;2022-07-29T06:42:35;9.57;;;8.75;;
73697;SDS011;62004;42.566;23.164;2022-07-29T06:45:00;9.95;;;9.10;;
73697;SDS011;62004;42.566;23.164;2022-07-29T06:47:25;12.33;;;11.33;;
73697;SDS011;62004;42.566;23.164;2022-07-29T06:49:50;11.63;;;10.53;;
73697;SDS011;62004;42.566;23.164;2022-07-29T06:52:16;10.63;;;9.73;;
73697;SDS011;62004;42.566;23.164;2022-07-29T06:54:41;10.33;;;9.23;;
73697;SDS011;62004;42.566;23.164;2022-07-29T06:57:12;11.25;;;10.40;;
73697;SDS011;62004;42.566;23.164;2022-07-29T06:59:38;11.65;;;10.57;;
73697;SDS011;62004;42.566;23.164;2022-07-29T07:02:03;11.37;;;10.17;;
73697;SDS011;62004;42.566;23.164;2022-07-29T07:04:28;10.80;;;9.93;;
73697;SDS011;62004;42.566;23.164;2022-07-29T07:06:53;12.20;;;11.20;;
73697;SDS011;62004;42.566;23.164;2022-07-29T07:09:20;11.82;;;10.85;;
73697;SDS011;62004;42.566;23.164;2022-07-29T07:11:45;12.57;;;11.45;;
73697;SDS011;62004;42.566;23.164;2022-07-29T07:14:11;10.98;;;10.07;;
73697;SDS011;62004;42.566;23.164;2022-07-29T07:16:36;10.75;;;9.95;;
73697;SDS011;62004;42.566;23.164;2022-07-29T07:19:01;10.55;;;9.68;;
73697;SDS011;62004;42.566;23.164;2022-07-29T07:21:27;10.32;;;9.63;;
73697;SDS011;62004;42.566;23.164;2022-07-29T07:23:52;9.82;;;9.18;;
73697;SDS011;62004;42.566;23.164;2022-07-29T07:26:17;10.50;;;9.53;;
73697;SDS011;62004;42.566;23.164;2022-07-29T07:28:43;11.30;;;10.30;;
73697;SDS011;62004;42.566;23.164;2022-07-29T07:31:08;10.18;;;9.38;;
73697;SDS011;62004;42.566;23.164;2022-07-29T07:33:34;8.50;;;7.82;;
73697;SDS011;62004;42.566;23.164;2022-07-29T07:35:59;8.70;;;7.82;;
73697;SDS011;62004;42.566;23.164;2022-07-29T07:38:25;9.57;;;7.63;;
73697;SDS011;62004;42.566;23.164;2022-07-29T07:40:50;8.75;;;7.93;;
73697;SDS011;62004;42.566;23.164;2022-07-29T07:43:15;9.70;;;8.82;;
73697;SDS011;62004;42.566;23.164;2022-07-29T07:45:40;10.13;;;9.13;;
73697;SDS011;62004;42.566;23.164;2022-07-29T07:48:06;10.93;;;8.93;;
73697;SDS011;62004;42.566;23.164;2022-07-29T07:50:31;9.43;;;8.57;;
73697;SDS011;62004;42.566;23.164;2022-07-29T07:52:56;9.90;;;8.90;;
73697;SDS011;62004;42.566;23.164;2022-07-29T07:55:22;10.23;;;9.05;;
73697;SDS011;62004;42.566;23.164;2022-07-29T07:57:48;9.25;;;8.32;;
73697;SDS011;62004;42.566;23.164;2022-07-29T08:00:13;11.30;;;9.23;;
73697;SDS011;62004;42.566;23.164;2022-07-29T08:02:39;9.15;;;8.27;;
73697;SDS011;62004;42.566;23.164;2022-07-29T08:05:05;10.80;;;9.48;;
73697;SDS011;62004;42.566;23.164;2022-07-29T08:07:31;9.60;;;8.57;;
73697;SDS011;62004;42.566;23.164;2022-07-29T08:09:57;14.52;;;8.55;;
73697;SDS011;62004;42.566;23.164;2022-07-29T08:12:22;13.85;;;10.35;;
73697;SDS011;62004;42.566;23.164;2022-07-29T08:14:47;13.40;;;9.93;;
73697;SDS011;62004;42.566;23.164;2022-07-29T08:17:12;12.90;;;9.70;;
73697;SDS011;62004;42.566;23.164;2022-07-29T08:19:38;13.67;;;8.30;;
73697;SDS011;62004;42.566;23.164;2022-07-29T08:22:03;10.23;;;8.70;;
73697;SDS011;62004;42.566;23.164;2022-07-29T08:24:28;11.32;;;9.55;;
73697;SDS011;62004;42.566;23.164;2022-07-29T08:27:11;12.23;;;9.43;;
73697;SDS011;62004;42.566;23.164;2022-07-29T08:29:36;10.45;;;9.48;;
73697;SDS011;62004;42.566;23.164;2022-07-29T08:32:02;14.50;;;9.45;;
73697;SDS011;62004;42.566;23.164;2022-07-29T08:34:27;11.75;;;8.82;;
73697;SDS011;62004;42.566;23.164;2022-07-29T08:36:53;9.57;;;8.68;;
73697;SDS011;62004;42.566;23.164;2022-07-29T08:39:19;10.40;;;9.32;;
73697;SDS011;62004;42.566;23.164;2022-07-29T08:41:44;11.40;;;8.80;;
73697;SDS011;62004;42.566;23.164;2022-07-29T08:44:09;9.73;;;8.32;;
73697;SDS011;62004;42.566;23.164;2022-07-29T08:46:37;9.03;;;8.03;;
73697;SDS011;62004;42.566;23.164;2022-07-29T08:49:02;10.35;;;9.23;;
73697;SDS011;62004;42.566;23.164;2022-07-29T08:51:27;13.95;;;8.90;;
73697;SDS011;62004;42.566;23.164;2022-07-29T08:53:53;10.13;;;7.45;;
73697;SDS011;62004;42.566;23.164;2022-07-29T08:56:19;10.02;;;8.02;;
73697;SDS011;62004;42.566;23.164;2022-07-29T08:58:46;13.63;;;8.95;;
73697;SDS011;62004;42.566;23.164;2022-07-29T09:01:11;9.20;;;8.30;;
73697;SDS011;62004;42.566;23.164;2022-07-29T09:03:38;8.93;;;8.02;;
73697;SDS011;62004;42.566;23.164;2022-07-29T09:06:05;8.18;;;7.47;;
73697;SDS011;62004;42.566;23.164;2022-07-29T09:08:30;12.00;;;9.00;;
73697;SDS011;62004;42.566;23.164;2022-07-29T09:10:56;9.82;;;8.55;;
73697;SDS011;62004;42.566;23.164;2022-07-29T09:13:22;9.48;;;8.50;;
73697;SDS011;62004;42.566;23.164;2022-07-29T09:15:47;9.45;;;8.52;;
73697;SDS011;62004;42.566;23.164;2022-07-29T09:18:31;8.18;;;7.43;;
73697;SDS011;62004;42.566;23.164;2022-07-29T09:20:57;10.10;;;9.10;;
73697;SDS011;62004;42.566;23.164;2022-07-29T09:23:55;10.15;;;9.13;;
73697;SDS011;62004;42.566;23.164;2022-07-29T09:26:27;10.60;;;8.48;;
73697;SDS011;62004;42.566;23.164;2022-07-29T09:28:52;8.93;;;8.10;;
73697;SDS011;62004;42.566;23.164;2022-07-29T09:31:18;11.43;;;10.30;;
73697;SDS011;62004;42.566;23.164;2022-07-29T09:33:51;15.57;;;9.45;;
73697;SDS011;62004;42.566;23.164;2022-07-29T09:36:16;8.98;;;8.07;;
73697;SDS011;62004;42.566;23.164;2022-07-29T09:38:42;12.30;;;8.38;;
73697;SDS011;62004;42.566;23.164;2022-07-29T09:41:07;10.10;;;9.27;;
73697;SDS011;62004;42.566;23.164;2022-07-29T09:43:35;7.93;;;7.20;;
73697;SDS011;62004;42.566;23.164;2022-07-29T09:46:10;9.23;;;7.90;;
73697;SDS011;62004;42.566;23.164;2022-07-29T09:48:35;9.82;;;8.80;;
73697;SDS011;62004;42.566;23.164;2022-07-29T09:51:00;10.83;;;9.80;;
73697;SDS011;62004;42.566;23.164;2022-07-29T09:53:30;9.95;;;8.90;;
73697;SDS011;62004;42.566;23.164;2022-07-29T09:55:56;7.97;;;7.18;;
73697;SDS011;62004;42.566;23.164;2022-07-29T09:58:21;9.48;;;8.25;;
73697;SDS011;62004;42.566;23.164;2022-07-29T10:00:48;9.32;;;8.43;;
73697;SDS011;62004;42.566;23.164;2022-07-29T10:03:14;11.15;;;9.40;;
73697;SDS011;62004;42.566;23.164;2022-07-29T10:05:40;10.23;;;9.25;;
73697;SDS011;62004;42.566;23.164;2022-07-29T10:08:07;9.70;;;8.80;;
73697;SDS011;62004;42.566;23.164;2022-07-29T10:10:34;11.63;;;10.38;;
73697;SDS011;62004;42.566;23.164;2022-07-29T10:13:02;9.77;;;8.63;;
73697;SDS011;62004;42.566;23.164;2022-07-29T10:15:29;10.57;;;9.48;;
73697;SDS011;62004;42.566;23.164;2022-07-29T10:17:55;9.57;;;8.57;;
73697;SDS011;62004;42.566;23.164;2022-07-29T10:20:21;10.70;;;9.02;;
73697;SDS011;62004;42.566;23.164;2022-07-29T10:22:47;10.52;;;9.43;;
73697;SDS011;62004;42.566;23.164;2022-07-29T10:25:14;10.70;;;9.73;;
73697;SDS011;62004;42.566;23.164;2022-07-29T10:27:39;19.73;;;12.93;;
73697;SDS011;62004;42.566;23.164;2022-07-29T10:30:05;22.00;;;14.25;;
73697;SDS011;62004;42.566;23.164;2022-07-29T10:43:27;106.85;;;81.72;;
73697;SDS011;62004;42.566;23.164;2022-07-29T10:45:57;51.25;;;40.45;;
73697;SDS011;62004;42.566;23.164;2022-07-29T10:48:23;87.93;;;67.65;;
73697;SDS011;62004;42.566;23.164;2022-07-29T10:51:02;103.38;;;83.88;;
73697;SDS011;62004;42.566;23.164;2022-07-29T10:53:48;85.90;;;71.20;;
73697;SDS011;62004;42.566;23.164;2022-07-29T10:56:24;52.63;;;44.55;;
73697;SDS011;62004;42.566;23.164;2022-07-29T11:01:34;88.28;;;74.85;;
73697;SDS011;62004;42.566;23.164;2022-07-29T11:03:59;47.77;;;38.90;;
73697;SDS011;62004;42.566;23.164;2022-07-29T11:06:25;50.40;;;41.17;;
73697;SDS011;62004;42.566;23.164;2022-07-29T11:09:17;205.18;;;166.75;;
73697;SDS011;62004;42.566;23.164;2022-07-29T11:11:43;121.93;;;98.10;;
73697;SDS011;62004;42.566;23.164;2022-07-29T11:14:08;130.38;;;108.95;;
73697;SDS011;62004;42.566;23.164;2022-07-29T11:19:19;125.90;;;101.05;;
73697;SDS011;62004;42.566;23.164;2022-07-29T11:21:45;17.48;;;15.68;;
73697;SDS011;62004;42.566;23.164;2022-07-29T11:24:25;56.25;;;45.15;;
73697;SDS011;62004;42.566;23.164;2022-07-29T11:27:35;15.15;;;11.60;;
73697;SDS011;62004;42.566;23.164;2022-07-29T11:29:48;13.02;;;11.68;;
73697;SDS011;62004;42.566;23.164;2022-07-29T11:32:14;13.95;;;12.55;;
73697;SDS011;62004;42.566;23.164;2022-07-29T11:34:41;12.70;;;11.40;;
73697;SDS011;62004;42.566;23.164;2022-07-29T11:39:32;15.90;;;14.30;;
73697;SDS011;62004;42.566;23.164;2022-07-29T11:44:57;20.13;;;16.45;;
73697;SDS011;62004;42.566;23.164;2022-07-29T11:47:23;13.18;;;10.88;;
73697;SDS011;62004;42.566;23.164;2022-07-29T11:49:49;12.23;;;11.02;;
73697;SDS011;62004;42.566;23.164;2022-07-29T11:52:16;13.10;;;11.80;;
73697;SDS011;62004;42.566;23.164;2022-07-29T11:54:41;16.00;;;11.55;;
73697;SDS011;62004;42.566;23.164;2022-07-29T11:57:07;20.73;;;14.00;;
73697;SDS011;62004;42.566;23.164;2022-07-29T11:59:39;15.80;;;10.90;;
73697;SDS011;62004;42.566;23.164;2022-07-29T12:02:04;11.52;;;10.23;;
73697;SDS011;62004;42.566;23.164;2022-07-29T12:04:29;17.73;;;12.93;;
73697;SDS011;62004;42.566;23.164;2022-07-29T12:06:55;14.20;;;11.60;;
73697;SDS011;62004;42.566;23.164;2022-07-29T12:09:21;12.23;;;10.95;;
73697;SDS011;62004;42.566;23.164;2022-07-29T12:11:57;12.80;;;11.60;;
73697;SDS011;62004;42.566;23.164;2022-07-29T12:14:26;13.50;;;11.77;;
73697;SDS011;62004;42.566;23.164;2022-07-29T12:16:51;14.02;;;12.63;;
73697;SDS011;62004;42.566;23.164;2022-07-29T12:19:17;14.05;;;12.75;;
73697;SDS011;62004;42.566;23.164;2022-07-29T12:21:43;14.20;;;12.60;;
73697;SDS011;62004;42.566;23.164;2022-07-29T12:24:08;13.10;;;11.82;;
73697;SDS011;62004;42.566;23.164;2022-07-29T12:26:34;13.10;;;11.80;;
73697;SDS011;62004;42.566;23.164;2022-07-29T12:28:59;10.70;;;9.70;;
73697;SDS011;62004;42.566;23.164;2022-07-29T12:31:24;11.65;;;9.77;;
73697;SDS011;62004;42.566;23.164;2022-07-29T12:33:53;12.87;;;11.57;;
73697;SDS011;62004;42.566;23.164;2022-07-29T12:36:18;12.60;;;11.55;;
73697;SDS011;62004;42.566;23.164;2022-07-29T12:38:44;13.30;;;10.45;;
73697;SDS011;62004;42.566;23.164;2022-07-29T12:41:09;11.45;;;10.27;;
73697;SDS011;62004;42.566;23.164;2022-07-29T12:43:35;11.52;;;10.40;;
73697;SDS011;62004;42.566;23.164;2022-07-29T12:46:11;12.77;;;10.98;;
73697;SDS011;62004;42.566;23.164;2022-07-29T12:48:37;13.38;;;11.65;;
73697;SDS011;62004;42.566;23.164;2022-07-29T12:51:04;11.35;;;10.05;;
73697;SDS011;62004;42.566;23.164;2022-07-29T12:53:29;9.82;;;8.30;;
73697;SDS011;62004;42.566;23.164;2022-07-29T12:55:55;10.95;;;9.88;;
73697;SDS011;62004;42.566;23.164;2022-07-29T12:58:28;11.35;;;10.40;;
73697;SDS011;62004;42.566;23.164;2022-07-29T13:01:04;10.18;;;9.27;;
73697;SDS011;62004;42.566;23.164;2022-07-29T13:03:40;10.27;;;9.45;;
73697;SDS011;62004;42.566;23.164;2022-07-29T13:06:06;7.85;;;7.15;;
73697;SDS011;62004;42.566;23.164;2022-07-29T13:08:31;9.50;;;8.67;;
73697;SDS011;62004;42.566;23.164;2022-07-29T13:10:56;7.60;;;6.80;;
73697;SDS011;62004;42.566;23.164;2022-07-29T13:13:22;7.47;;;6.87;;
73697;SDS011;62004;42.566;23.164;2022-07-29T13:15:47;7.93;;;7.22;;
73697;SDS011;62004;42.566;23.164;2022-07-29T13:18:31;8.07;;;7.30;;
73697;SDS011;62004;42.566;23.164;2022-07-29T13:20:57;7.88;;;7.18;;
73697;SDS011;62004;42.566;23.164;2022-07-29T13:23:34;6.18;;;5.68;;
73697;SDS011;62004;42.566;23.164;2022-07-29T13:26:06;6.50;;;5.93;;
73697;SDS011;62004;42.566;23.164;2022-07-29T13:28:32;7.68;;;6.97;;
73697;SDS011;62004;42.566;23.164;2022-07-29T13:30:57;8.20;;;7.50;;
73697;SDS011;62004;42.566;23.164;2022-07-29T13:33:22;7.87;;;7.13;;
73697;SDS011;62004;42.566;23.164;2022-07-29T13:35:48;8.23;;;7.53;;
73697;SDS011;62004;42.566;23.164;2022-07-29T13:38:14;11.77;;;6.57;;
73697;SDS011;62004;42.566;23.164;2022-07-29T13:40:40;7.23;;;6.60;;
73697;SDS011;62004;42.566;23.164;2022-07-29T13:43:08;6.78;;;6.13;;
73697;SDS011;62004;42.566;23.164;2022-07-29T13:45:33;7.43;;;6.65;;
73697;SDS011;62004;42.566;23.164;2022-07-29T13:47:58;8.50;;;7.60;;
73697;SDS011;62004;42.566;23.164;2022-07-29T13:50:24;7.50;;;6.80;;
73697;SDS011;62004;42.566;23.164;2022-07-29T14:08:40;8.57;;;7.78;;
73697;SDS011;62004;42.566;23.164;2022-07-29T14:11:06;10.52;;;6.55;;
73697;SDS011;62004;42.566;23.164;2022-07-29T14:13:31;7.47;;;6.75;;
73697;SDS011;62004;42.566;23.164;2022-07-29T14:15:56;6.67;;;5.87;;
73697;SDS011;62004;42.566;23.164;2022-07-29T14:18:22;6.75;;;6.15;;
73697;SDS011;62004;42.566;23.164;2022-07-29T14:20:47;6.40;;;5.87;;
73697;SDS011;62004;42.566;23.164;2022-07-29T14:23:13;7.07;;;6.38;;
73697;SDS011;62004;42.566;23.164;2022-07-29T14:25:38;6.93;;;6.33;;
73697;SDS011;62004;42.566;23.164;2022-07-29T14:28:03;5.95;;;5.45;;
73697;SDS011;62004;42.566;23.164;2022-07-29T14:30:29;5.80;;;5.38;;
73697;SDS011;62004;42.566;23.164;2022-07-29T14:32:54;5.97;;;5.57;;
73697;SDS011;62004;42.566;23.164;2022-07-29T14:35:19;5.43;;;5.03;;
73697;SDS011;62004;42.566;23.164;2022-07-29T14:37:44;6.80;;;6.17;;
73697;SDS011;62004;42.566;23.164;2022-07-29T14:40:10;7.78;;;5.78;;
73697;SDS011;62004;42.566;23.164;2022-07-29T14:42:36;7.43;;;6.57;;
73697;SDS011;62004;42.566;23.164;2022-07-29T14:45:02;8.50;;;6.40;;
73697;SDS011;62004;42.566;23.164;2022-07-29T14:47:28;6.55;;;5.95;;
73697;SDS011;62004;42.566;23.164;2022-07-29T14:49:53;6.60;;;6.10;;
73697;SDS011;62004;42.566;23.164;2022-07-29T14:52:18;6.97;;;6.27;;
73697;SDS011;62004;42.566;23.164;2022-07-29T14:54:44;7.03;;;6.40;;
73697;SDS011;62004;42.566;23.164;2022-07-29T14:57:09;8.07;;;6.53;;
73697;SDS011;62004;42.566;23.164;2022-07-29T14:59:34;6.17;;;5.57;;
73697;SDS011;62004;42.566;23.164;2022-07-29T15:01:59;7.57;;;6.93;;
73697;SDS011;62004;42.566;23.164;2022-07-29T15:04:25;7.97;;;7.10;;
73697;SDS011;62004;42.566;23.164;2022-07-29T15:06:50;7.67;;;7.07;;
73697;SDS011;62004;42.566;23.164;2022-07-29T15:09:16;7.50;;;6.80;;
73697;SDS011;62004;42.566;23.164;2022-07-29T15:11:42;7.67;;;6.97;;
73697;SDS011;62004;42.566;23.164;2022-07-29T15:14:07;8.00;;;7.32;;
73697;SDS011;62004;42.566;23.164;2022-07-29T15:16:34;7.78;;;7.05;;
73697;SDS011;62004;42.566;23.164;2022-07-29T15:19:00;7.22;;;6.53;;
73697;SDS011;62004;42.566;23.164;2022-07-29T15:21:25;7.63;;;6.37;;